Time;durP1;ratioP1;P1;durP2;ratioP2;P2;SDS_P1;SDS_P2;PMS_P1;PMS_P2;Temp;Humidity;BMP_temperature;BMP_pressure;BME280_temperature;BME280_humidity;BME280_pressure;Samples;Min_cycle;Max_cycle;Signal;HPM_P1;HPM_P2
2021/11/25 00:00:37;;;;;;;12.60;6.05;;;;;;;5.53;80.77;97748.00;5082937;28;20071;-68
2021/11/25 00:03:05;;;;;;;15.82;6.30;;;;;;;5.92;80.90;97791.91;5083144;28;20048;-68
2021/11/25 00:05:32;;;;;;;13.57;6.90;;;;;;;5.93;80.43;97793.50;5084954;28;20056;-68
2021/11/25 00:08:02;;;;;;;13.60;6.85;;;;;;;6.00;80.82;97786.41;5083745;28;20131;-67
2021/11/25 00:10:31;;;;;;;15.88;6.70;;;;;;;5.91;80.26;97771.84;5084692;28;20462;-68
2021/11/25 00:12:57;;;;;;;16.08;6.78;;;;;;;5.84;80.43;97765.19;5084151;28;20052;-68
2021/11/25 00:15:26;;;;;;;21.52;7.68;;;;;;;5.47;80.14;97705.34;5084148;28;20055;-68
2021/11/25 00:17:53;;;;;;;23.60;9.48;;;;;;;5.79;80.97;97762.56;5084034;28;20055;-68
2021/11/25 00:20:20;;;;;;;16.60;8.27;;;;;;;5.98;80.92;97793.34;5084741;28;20054;-68
2021/11/25 00:22:47;;;;;;;13.40;6.22;;;;;;;5.26;81.28;97665.88;5084059;28;20048;-68
2021/11/25 00:25:14;;;;;;;9.77;5.18;;;;;;;5.97;81.10;97789.78;5083256;28;20056;-68
2021/11/25 00:27:41;;;;;;;11.23;5.45;;;;;;;5.60;80.71;97712.59;5083917;28;20131;-68
2021/11/25 00:30:11;;;;;;;8.45;4.88;;;;;;;6.08;80.35;97793.06;5084264;28;20051;-68
2021/11/25 00:32:40;;;;;;;9.20;5.20;;;;;;;4.34;81.22;97513.28;5082729;28;20052;-68
2021/11/25 00:35:08;;;;;;;9.20;5.82;;;;;;;6.15;81.40;97798.84;5068510;28;20438;-68
2021/11/25 00:37:35;;;;;;;11.40;5.90;;;;;;;5.68;81.52;97711.78;5063902;28;20053;-67
2021/11/25 00:40:02;;;;;;;15.77;7.55;;;;;;;5.67;80.80;97718.44;5064417;28;20057;-68
2021/11/25 00:42:29;;;;;;;14.57;6.20;;;;;;;5.93;81.15;97757.75;5062263;28;20139;-68
2021/11/25 00:44:56;;;;;;;14.50;6.97;;;;;;;6.28;80.48;97791.56;5062808;28;20620;-68
2021/11/25 00:47:22;;;;;;;12.02;6.80;;;;;;;6.30;79.90;97790.13;5064319;28;20052;-68
2021/11/25 00:49:49;;;;;;;19.08;7.10;;;;;;;5.94;79.93;97748.41;5064560;28;20484;-67
2021/11/25 00:52:16;;;;;;;24.33;9.82;;;;;;;6.30;79.83;97795.63;5062448;28;20056;-68
2021/11/25 00:54:43;;;;;;;22.05;9.05;;;;;;;6.26;81.14;97783.66;5063772;28;20525;-68
2021/11/25 00:57:09;;;;;;;16.20;7.72;;;;;;;6.35;79.03;97787.22;5062389;28;20048;-68
2021/11/25 00:59:36;;;;;;;16.15;7.28;;;;;;;6.35;78.92;97792.72;5062780;28;20052;-68
2021/11/25 01:02:03;;;;;;;9.52;5.07;;;;;;;6.35;79.07;97787.22;5063568;28;20045;-68
2021/11/25 01:04:30;;;;;;;7.03;3.90;;;;;;;6.32;79.45;97785.13;5062813;28;20408;-68
2021/11/25 01:06:58;;;;;;;9.77;4.22;;;;;;;6.27;79.49;97777.03;5063740;28;20049;-67
2021/11/25 01:09:24;;;;;;;9.30;4.30;;;;;;;5.53;79.91;97677.34;5063982;28;20135;-68
2021/11/25 01:11:57;;;;;;;10.55;4.78;;;;;;;5.90;80.55;97797.72;5063714;28;20068;-68
2021/11/25 01:14:24;;;;;;;8.98;4.80;;;;;;;6.28;80.04;97775.88;5062679;28;20048;-67
2021/11/25 01:16:51;;;;;;;10.82;4.88;;;;;;;6.25;80.06;97771.03;5062219;28;20059;-68
2021/11/25 01:19:18;;;;;;;8.05;4.40;;;;;;;6.20;80.24;97768.44;5063356;28;20044;-67
2021/11/25 01:21:44;;;;;;;10.65;4.32;;;;;;;6.12;81.01;97753.56;5063718;28;20051;-67
2021/11/25 01:24:11;;;;;;;6.25;3.30;;;;;;;6.30;79.96;97784.63;5063434;28;20045;-67
2021/11/25 01:26:38;;;;;;;7.07;3.95;;;;;;;6.24;80.58;97758.44;5065396;28;20079;-68
2021/11/25 01:29:05;;;;;;;7.57;4.18;;;;;;;6.25;80.33;97753.72;5067503;28;20059;-68
2021/11/25 01:31:32;;;;;;;6.50;3.55;;;;;;;6.29;80.09;97750.00;5067374;28;20056;-67
2021/11/25 01:33:59;;;;;;;8.00;3.97;;;;;;;6.22;80.55;97752.44;5072928;28;20044;-69
2021/11/25 01:36:25;;;;;;;8.25;4.40;;;;;;;6.23;80.99;97756.78;5086117;28;20051;-68
2021/11/25 01:38:53;;;;;;;10.88;4.15;;;;;;;6.29;80.90;97755.50;5085854;28;20051;-68
2021/11/25 01:41:20;;;;;;;13.27;4.47;;;;;;;5.68;80.58;97645.84;5087408;28;20048;-68
2021/11/25 01:43:47;;;;;;;9.73;4.57;;;;;;;6.29;80.10;97751.94;5087082;28;20052;-68
2021/11/25 01:46:17;;;;;;;12.15;5.93;;;;;;;6.34;80.24;97741.56;5087132;28;20063;-67
2021/11/25 01:48:48;;;;;;;17.23;6.80;;;;;;;6.28;80.16;97731.06;5086763;28;20079;-67
2021/11/25 01:51:17;;;;;;;14.70;6.85;;;;;;;6.35;80.61;97742.38;5087224;28;20058;-67
2021/11/25 01:53:45;;;;;;;16.55;6.95;;;;;;;6.37;81.33;97746.41;5085612;28;20060;-68
2021/11/25 01:56:12;;;;;;;18.85;8.15;;;;;;;6.32;80.39;97732.84;5087273;28;20071;-69
2021/11/25 01:58:39;;;;;;;23.15;8.45;;;;;;;5.84;80.97;97666.25;5085053;28;20056;-68
2021/11/25 02:01:09;;;;;;;17.00;8.57;;;;;;;6.23;81.49;97729.28;5087109;28;20056;-67
2021/11/25 02:03:37;;;;;;;22.42;9.25;;;;;;;6.37;80.78;97746.41;5086528;28;20067;-68
2021/11/25 02:06:09;;;;;;;19.83;8.02;;;;;;;6.27;81.19;97738.50;5085391;28;20051;-67
2021/11/25 02:08:36;;;;;;;15.93;7.38;;;;;;;6.36;81.26;97744.00;5086594;28;20051;-67
2021/11/25 02:11:04;;;;;;;15.20;7.25;;;;;;;5.72;81.65;97638.59;5085208;28;20059;-67
2021/11/25 02:13:31;;;;;;;17.42;6.88;;;;;;;6.32;82.05;97743.84;5084959;27;20070;-68
2021/11/25 02:15:58;;;;;;;16.77;7.47;;;;;;;5.50;81.79;97619.50;5086635;28;20052;-69
2021/11/25 02:18:26;;;;;;;12.35;6.30;;;;;;;6.24;81.38;97741.91;5085115;28;20071;-69
2021/11/25 02:20:56;;;;;;;12.50;6.20;;;;;;;5.78;81.08;97662.00;5085121;28;20044;-68
2021/11/25 02:23:24;;;;;;;12.15;6.05;;;;;;;6.14;81.84;97723.00;5086601;28;20076;-68
2021/11/25 02:25:51;;;;;;;14.93;5.38;;;;;;;6.25;82.00;97738.03;5086982;28;20438;-68
2021/11/25 02:28:20;;;;;;;12.60;5.45;;;;;;;5.83;81.70;97642.66;5084908;28;20052;-68
2021/11/25 02:30:48;;;;;;;11.95;5.72;;;;;;;6.27;81.72;97729.44;5085114;28;20058;-68
2021/11/25 02:33:16;;;;;;;14.27;5.65;;;;;;;6.26;81.67;97728.63;5085126;28;20144;-68
2021/11/25 02:35:43;;;;;;;11.05;5.10;;;;;;;6.21;82.45;97719.75;5066395;28;20048;-68
2021/11/25 02:38:11;;;;;;;10.82;4.82;;;;;;;6.25;82.05;97727.03;5065942;28;20059;-69
2021/11/25 02:40:47;;;;;;;10.35;4.50;;;;;;;6.29;82.05;97722.50;5065983;28;20048;-68
2021/11/25 02:43:17;;;;;;;9.32;4.97;;;;;;;6.27;82.12;97734.94;5066304;28;20434;-69
2021/11/25 02:45:52;;;;;;;12.07;4.53;;;;;;;6.29;82.64;97727.19;5064245;28;20057;-68
2021/11/25 02:48:23;;;;;;;15.68;4.93;;;;;;;6.21;82.64;97704.06;5065786;28;20131;-68
2021/11/25 02:50:51;;;;;;;14.73;5.60;;;;;;;6.17;80.31;97681.06;5065452;28;20060;-68
2021/11/25 02:53:20;;;;;;;15.55;6.28;;;;;;;6.32;80.77;97724.59;5065542;28;20051;-69
2021/11/25 02:55:48;;;;;;;10.52;5.38;;;;;;;6.26;81.88;97723.13;5065500;28;20055;-68
2021/11/25 02:58:15;;;;;;;11.30;6.05;;;;;;;6.22;81.60;97735.94;5065450;28;20451;-67
2021/11/25 03:00:45;;;;;;;12.18;5.50;;;;;;;6.18;81.55;97721.19;5063797;28;20049;-68
2021/11/25 03:03:15;;;;;;;10.93;5.57;;;;;;;6.10;81.96;97730.28;5065589;28;20133;-67
2021/11/25 03:05:45;;;;;;;11.07;5.15;;;;;;;6.30;81.39;97723.28;5065290;28;20583;-67
2021/11/25 03:08:13;;;;;;;8.52;4.45;;;;;;;6.35;81.22;97721.19;5065226;28;20048;-69
2021/11/25 03:10:39;;;;;;;6.65;3.72;;;;;;;6.30;81.13;97715.84;5064884;28;20475;-66
2021/11/25 03:13:08;;;;;;;6.85;3.35;;;;;;;6.19;81.78;97717.31;5065102;28;20063;-67
2021/11/25 03:15:38;;;;;;;6.25;3.67;;;;;;;6.22;82.01;97716.66;5063241;28;20045;-67
2021/11/25 03:18:07;;;;;;;9.50;4.30;;;;;;;6.11;82.35;97709.88;5065212;28;20135;-67
2021/11/25 03:20:36;;;;;;;5.35;3.33;;;;;;;6.10;81.92;97708.28;5065202;28;20578;-67
2021/11/25 03:23:05;;;;;;;7.65;3.58;;;;;;;6.17;81.74;97703.09;5064896;28;20052;-67
2021/11/25 03:25:33;;;;;;;8.63;3.92;;;;;;;5.95;82.20;97662.03;5063044;28;20049;-67
2021/11/25 03:28:02;;;;;;;7.40;3.70;;;;;;;5.76;81.09;97625.78;5064495;28;20067;-68
2021/11/25 03:30:29;;;;;;;7.75;3.75;;;;;;;6.28;80.74;97704.34;5064850;28;20142;-67
2021/11/25 03:32:56;;;;;;;9.52;4.35;;;;;;;5.86;81.80;97648.28;5064670;28;20139;-67
2021/11/25 03:35:22;;;;;;;7.15;3.90;;;;;;;6.18;81.70;97694.50;5080519;28;20063;-67
2021/11/25 03:37:49;;;;;;;7.10;3.97;;;;;;;6.14;82.00;97703.72;5084748;28;20109;-67
2021/11/25 03:40:16;;;;;;;8.30;3.75;;;;;;;6.17;80.88;97697.59;5084672;28;20048;-67
2021/11/25 03:42:43;;;;;;;7.10;4.35;;;;;;;6.17;81.41;97692.06;5085230;28;20084;-67
2021/11/25 03:45:12;;;;;;;10.70;4.50;;;;;;;5.87;81.15;97660.91;5084808;28;20087;-67
2021/11/25 03:47:41;;;;;;;11.02;5.13;;;;;;;5.83;81.62;97632.44;5084814;28;20056;-67
2021/11/25 03:50:09;;;;;;;11.02;5.35;;;;;;;6.08;81.68;97661.84;5082670;28;20059;-67
2021/11/25 03:52:36;;;;;;;16.90;6.93;;;;;;;6.28;80.99;97685.09;5084919;28;20560;-67
2021/11/25 03:55:05;;;;;;;18.23;8.07;;;;;;;6.10;80.91;97653.28;5084780;28;20058;-67
2021/11/25 03:57:32;;;;;;;20.25;9.80;;;;;;;6.21;80.98;97687.56;5083531;28;20070;-67
2021/11/25 03:59:59;;;;;;;22.85;10.30;;;;;;;6.21;81.63;97687.56;5084770;28;20048;-68
2021/11/25 04:02:26;;;;;;;17.70;6.97;;;;;;;5.88;81.50;97634.22;5084713;28;20052;-67
2021/11/25 04:04:53;;;;;;;19.95;9.38;;;;;;;6.10;82.41;97686.28;5084542;28;20048;-68
2021/11/25 04:07:20;;;;;;;28.52;12.80;;;;;;;6.10;82.15;97675.28;5084193;28;20079;-68
2021/11/25 04:09:47;;;;;;;22.55;9.75;;;;;;;3.18;82.22;97210.22;5084868;28;20052;-68
2021/11/25 04:12:13;;;;;;;11.95;6.65;;;;;;;6.10;82.18;97686.28;5083942;28;20052;-68
2021/11/25 04:14:41;;;;;;;15.88;6.50;;;;;;;6.06;82.60;97679.81;5083144;28;20044;-68
2021/11/25 04:17:07;;;;;;;15.82;6.03;;;;;;;5.93;83.14;97645.03;5083974;28;20044;-69
2021/11/25 04:19:34;;;;;;;9.48;4.43;;;;;;;6.14;81.85;97732.06;5082822;28;20531;-67
2021/11/25 04:22:01;;;;;;;7.60;3.90;;;;;;;6.13;81.91;97688.38;5082377;28;20495;-67
2021/11/25 04:24:29;;;;;;;14.02;6.43;;;;;;;5.59;82.47;97603.81;5084407;28;20052;-67
2021/11/25 04:26:55;;;;;;;16.35;7.60;;;;;;;6.15;82.18;97677.84;5082512;28;20071;-68
2021/11/25 04:29:24;;;;;;;20.92;8.95;;;;;;;6.15;81.74;97677.84;5084101;28;20064;-68
2021/11/25 04:37:38;;;;;;;17.65;7.40;;;;;;;5.84;83.60;97679.97;5062254;28;20076;-68
2021/11/25 04:40:06;;;;;;;17.60;8.10;;;;;;;5.72;82.88;97644.06;5064202;28;20570;-68
2021/11/25 04:42:33;;;;;;;20.15;8.60;;;;;;;5.57;84.25;97617.88;5062681;28;20581;-69
2021/11/25 04:44:59;;;;;;;31.48;10.48;;;;;;;5.99;83.65;97676.75;5063926;28;20130;-69
2021/11/25 04:47:26;;;;;;;19.63;8.90;;;;;;;5.93;84.07;97675.28;5063326;28;20049;-68
2021/11/25 04:49:53;;;;;;;31.25;10.77;;;;;;;5.44;83.45;97585.06;5064096;28;20058;-70
2021/11/25 04:52:20;;;;;;;27.73;11.07;;;;;;;5.99;83.67;97674.00;5063786;28;20056;-69
2021/11/25 04:54:47;;;;;;;25.63;11.95;;;;;;;6.03;83.36;97674.97;5062859;28;20513;-69
2021/11/25 04:57:14;;;;;;;27.48;12.73;;;;;;;5.84;82.72;97641.50;5064070;28;20045;-68
2021/11/25 04:59:40;;;;;;;19.08;9.45;;;;;;;6.09;83.04;97673.66;5064611;28;20049;-68
2021/11/25 05:02:07;;;;;;;61.03;23.08;;;;;;;6.06;83.61;97660.56;5066891;28;20515;-68
2021/11/25 05:04:35;;;;;;;28.65;11.45;;;;;;;5.39;83.29;97557.78;5067607;28;20230;-69
2021/11/25 05:07:02;;;;;;;24.08;11.18;;;;;;;5.44;82.92;97579.56;5066280;28;20056;-69
2021/11/25 05:09:29;;;;;;;22.15;8.00;;;;;;;6.06;83.90;97675.13;5067721;28;20056;-69
2021/11/25 05:11:55;;;;;;;22.58;8.55;;;;;;;5.99;83.78;97668.50;5066141;28;20052;-67
2021/11/25 05:14:22;;;;;;;22.23;10.27;;;;;;;5.94;83.79;97643.91;5067509;28;20549;-69
2021/11/25 05:16:49;;;;;;;16.35;7.30;;;;;;;5.83;84.83;97664.63;5067325;28;20052;-67
2021/11/25 05:19:17;;;;;;;20.08;6.90;;;;;;;5.89;84.93;97668.81;5067726;28;20109;-67
2021/11/25 05:21:45;;;;;;;16.35;7.68;;;;;;;5.81;84.88;97631.13;5065658;28;20058;-68
2021/11/25 05:24:12;;;;;;;13.45;6.93;;;;;;;6.08;83.92;97667.38;5067405;28;20551;-68
2021/11/25 05:26:39;;;;;;;22.15;8.52;;;;;;;5.24;85.04;97593.97;5067122;28;20053;-71
2021/11/25 05:29:06;;;;;;;22.08;8.52;;;;;;;5.89;85.11;97668.81;5065750;28;20065;-68
2021/11/25 05:31:32;;;;;;;28.60;12.30;;;;;;;5.40;84.19;97573.94;5067063;28;20076;-68
2021/11/25 05:33:59;;;;;;;23.08;8.57;;;;;;;5.81;83.51;97640.19;5062277;28;20053;-68
2021/11/25 05:36:26;;;;;;;21.10;10.27;;;;;;;5.23;84.40;97556.66;5085994;28;20048;-69
2021/11/25 05:38:53;;;;;;;20.63;9.70;;;;;;;5.98;84.34;97667.69;5087383;28;20048;-69
2021/11/25 05:41:19;;;;;;;23.27;9.27;;;;;;;6.13;83.58;97674.63;5085786;28;20047;-68
2021/11/25 05:43:46;;;;;;;15.93;6.75;;;;;;;6.06;84.24;97671.56;5086997;28;20052;-67
2021/11/25 05:46:13;;;;;;;15.40;6.88;;;;;;;6.07;84.29;97678.66;5085426;28;20561;-68
2021/11/25 05:48:40;;;;;;;18.60;8.38;;;;;;;6.17;84.44;97681.06;5087354;28;20206;-67
2021/11/25 05:51:07;;;;;;;21.17;9.73;;;;;;;6.34;84.07;97681.03;5087375;28;20071;-69
2021/11/25 05:53:34;;;;;;;24.17;12.13;;;;;;;6.07;82.39;97627.22;5086474;28;20058;-68
2021/11/25 05:56:00;;;;;;;31.38;12.48;;;;;;;6.34;82.22;97664.53;5087027;28;20418;-68
2021/11/25 05:58:27;;;;;;;30.20;12.48;;;;;;;6.44;82.72;97669.69;5086855;28;20058;-69
2021/11/25 06:00:54;;;;;;;26.08;12.88;;;;;;;6.46;82.44;97670.19;5085657;28;20060;-68
2021/11/25 06:03:24;;;;;;;23.73;11.65;;;;;;;6.52;82.12;97681.81;5086998;28;20051;-67
2021/11/25 06:05:50;;;;;;;29.45;13.20;;;;;;;6.58;81.93;97675.78;5085619;28;20055;-69
2021/11/25 06:08:17;;;;;;;34.85;16.77;;;;;;;6.64;81.49;97671.72;5086256;28;20055;-68
2021/11/25 06:10:44;;;;;;;29.60;15.63;;;;;;;6.57;81.84;97657.69;5086847;28;20048;-69
2021/11/25 06:13:11;;;;;;;38.42;15.82;;;;;;;5.44;81.67;97546.59;5085490;28;20062;-69
2021/11/25 06:15:37;;;;;;;25.40;12.88;;;;;;;6.28;81.80;97624.56;5086622;28;20052;-69
2021/11/25 06:18:04;;;;;;;27.05;13.20;;;;;;;6.45;81.05;97626.47;5086337;28;20074;-68
2021/11/25 06:20:31;;;;;;;33.38;15.93;;;;;;;6.69;80.41;97660.53;5086787;28;20055;-68
2021/11/25 06:22:58;;;;;;;27.70;14.05;;;;;;;6.64;80.74;97662.66;5085986;28;20074;-69
2021/11/25 06:25:25;;;;;;;33.28;15.02;;;;;;;6.74;80.30;97657.59;5086643;28;20955;-67
2021/11/25 06:27:53;;;;;;;28.38;14.57;;;;;;;6.64;79.82;97630.44;5085730;28;20056;-68
2021/11/25 06:30:20;;;;;;;28.05;13.77;;;;;;;6.95;79.88;97658.47;5086301;28;20494;-69
2021/11/25 06:32:48;;;;;;;41.25;16.85;;;;;;;7.03;79.02;97656.81;5084630;28;20053;-68
2021/11/25 06:35:17;;;;;;;40.35;16.02;;;;;;;6.97;79.24;97661.69;5073947;28;20062;-69
2021/11/25 06:37:47;;;;;;;35.88;16.35;;;;;;;6.46;78.73;97557.34;5065902;28;20416;-69
2021/11/25 06:40:19;;;;;;;38.38;16.17;;;;;;;6.57;78.98;97574.28;5057593;28;20056;-69
2021/11/25 06:42:46;;;;;;;28.38;14.43;;;;;;;7.31;77.81;97663.44;5044369;28;20060;-69
2021/11/25 06:45:13;;;;;;;35.03;14.18;;;;;;;7.14;76.94;97639.59;5051649;28;20040;-66
2021/11/25 06:47:40;;;;;;;35.10;15.43;;;;;;;6.81;77.22;97589.03;5056389;28;20049;-68
2021/11/25 06:50:09;;;;;;;35.30;15.57;;;;;;;7.09;77.05;97614.97;5051624;28;20055;-62
2021/11/25 06:52:37;;;;;;;33.33;16.52;;;;;;;7.48;76.65;97653.13;5057219;28;20056;-64
2021/11/25 06:55:07;;;;;;;50.70;19.27;;;;;;;7.55;75.98;97656.16;5055772;28;20149;-67
2021/11/25 06:57:34;;;;;;;49.17;19.65;;;;;;;7.32;75.77;97624.53;5060055;28;20057;-65
2021/11/25 07:00:05;;;;;;;40.65;18.25;;;;;;;7.59;74.73;97662.59;5063340;28;20143;-65
2021/11/25 07:02:32;;;;;;;40.47;15.50;;;;;;;7.44;75.16;97643.91;5056699;28;20511;-64
2021/11/25 07:04:58;;;;;;;52.97;22.45;;;;;;;7.54;74.32;97648.19;5047016;28;20064;-63
2021/11/25 07:07:25;;;;;;;60.30;22.02;;;;;;;7.19;74.03;97595.28;5058344;28;20120;-63
2021/11/25 07:09:52;;;;;;;41.17;18.90;;;;;;;6.13;73.28;97443.63;5067846;28;20055;-65
2021/11/25 07:12:19;;;;;;;38.38;16.33;;;;;;;7.51;73.09;97633.13;5055189;28;20103;-62
2021/11/25 07:14:46;;;;;;;32.80;14.68;;;;;;;7.16;72.99;97576.66;5061328;28;20057;-62
2021/11/25 07:17:13;;;;;;;30.75;11.90;;;;;;;7.75;73.15;97657.28;5054254;28;20103;-70
2021/11/25 07:19:41;;;;;;;19.20;9.52;;;;;;;7.80;72.72;97656.25;5058879;28;20401;-65
2021/11/25 07:22:08;;;;;;;20.45;7.68;;;;;;;7.76;72.55;97655.34;5056811;28;20053;-64
2021/11/25 07:24:35;;;;;;;13.40;6.65;;;;;;;7.47;71.71;97626.69;5043626;28;20052;-64
2021/11/25 07:27:03;;;;;;;11.80;7.10;;;;;;;7.10;71.96;97553.22;5060374;28;20074;-64
2021/11/25 07:29:30;;;;;;;16.23;6.72;;;;;;;7.68;71.41;97649.53;5044310;28;20060;-64
2021/11/25 07:31:57;;;;;;;15.88;6.60;;;;;;;7.83;71.50;97650.06;5045452;28;20055;-64
2021/11/25 07:34:24;;;;;;;11.48;5.78;;;;;;;7.66;70.77;97607.75;5049726;28;20048;-67
2021/11/25 07:36:50;;;;;;;12.93;5.03;;;;;;;7.33;71.01;97560.00;5062808;28;20442;-66
2021/11/25 07:39:17;;;;;;;9.88;5.03;;;;;;;7.99;70.59;97651.06;5058914;28;20067;-63
2021/11/25 07:41:44;;;;;;;12.23;5.70;;;;;;;8.05;70.55;97652.47;5044318;28;20053;-67
2021/11/25 07:44:11;;;;;;;6.70;3.88;;;;;;;7.67;70.49;97614.84;5057934;28;20052;-65
2021/11/25 07:46:38;;;;;;;10.85;4.95;;;;;;;7.99;69.61;97642.78;5046830;28;20438;-62
2021/11/25 07:49:05;;;;;;;10.43;4.68;;;;;;;8.01;69.82;97641.31;5059477;28;20052;-61
2021/11/25 07:51:32;;;;;;;10.45;4.82;;;;;;;7.87;70.07;97637.22;5064133;28;20055;-62
2021/11/25 07:54:02;;;;;;;10.68;4.28;;;;;;;7.78;69.19;97609.72;5061097;28;20062;-61
2021/11/25 07:56:28;;;;;;;8.20;3.67;;;;;;;8.05;69.18;97645.00;5042007;28;20049;-70
2021/11/25 07:58:55;;;;;;;9.57;4.90;;;;;;;7.98;68.89;97641.19;5058792;28;20041;-62
2021/11/25 08:01:22;;;;;;;8.55;4.18;;;;;;;7.87;69.21;97613.22;5046167;28;20128;-66
2021/11/25 08:03:49;;;;;;;6.70;3.78;;;;;;;8.18;68.28;97643.91;5048435;28;20055;-69
2021/11/25 08:06:15;;;;;;;32.30;11.50;;;;;;;8.07;68.98;97651.00;5063361;28;20052;-65
2021/11/25 08:08:42;;;;;;;16.67;5.55;;;;;;;6.04;68.91;97328.16;5052048;28;20053;-63
2021/11/25 08:11:09;;;;;;;18.67;6.13;;;;;;;7.99;68.49;97604.16;5050375;28;20048;-69
2021/11/25 08:13:36;;;;;;;8.38;4.88;;;;;;;8.12;68.77;97625.13;5056512;28;20423;-61
2021/11/25 08:16:03;;;;;;;12.52;4.97;;;;;;;7.24;68.30;97478.59;5048233;28;20059;-67
2021/11/25 08:18:33;;;;;;;9.70;4.50;;;;;;;8.20;69.06;97649.91;5054732;28;20574;-64
2021/11/25 08:21:00;;;;;;;9.57;4.57;;;;;;;8.21;68.66;97645.97;5046704;28;20045;-63
2021/11/25 08:23:27;;;;;;;13.25;5.10;;;;;;;7.55;69.72;97603.78;5053915;28;20045;-64
2021/11/25 08:25:54;;;;;;;9.07;5.40;;;;;;;8.17;69.74;97649.75;5050986;28;20063;-66
2021/11/25 08:28:22;;;;;;;10.13;4.80;;;;;;;7.46;68.84;97525.84;5055217;28;20487;-63
2021/11/25 08:30:51;;;;;;;10.10;4.95;;;;;;;8.31;68.74;97650.28;5043588;28;20052;-64
2021/11/25 08:33:20;;;;;;;9.23;4.50;;;;;;;7.88;68.70;97575.41;5057055;28;20071;-63
2021/11/25 08:35:48;;;;;;;12.68;5.28;;;;;;;8.48;68.38;97650.09;5061623;28;20052;-63
2021/11/25 08:38:15;;;;;;;10.13;5.30;;;;;;;7.83;68.05;97583.88;5050858;28;20483;-63
2021/11/25 08:40:42;;;;;;;10.45;4.97;;;;;;;8.36;69.02;97639.03;5062944;28;20068;-63
2021/11/25 08:43:10;;;;;;;7.28;4.53;;;;;;;6.87;70.25;97488.59;5060369;28;20053;-66
2021/11/25 08:45:38;;;;;;;10.73;5.07;;;;;;;7.43;72.35;97603.69;5047765;28;20144;-70
2021/11/25 08:48:05;;;;;;;10.57;5.40;;;;;;;7.67;70.55;97581.78;5059177;28;20133;-69
2021/11/25 08:50:33;;;;;;;11.13;4.50;;;;;;;8.10;70.75;97627.44;5067652;28;20222;-70
2021/11/25 08:53:00;;;;;;;10.38;4.97;;;;;;;6.77;71.62;97477.97;5065673;28;20048;-71
2021/11/25 08:55:31;;;;;;;9.70;4.70;;;;;;;7.07;69.36;97456.69;5047138;28;20060;-66
2021/11/25 08:57:59;;;;;;;9.10;4.65;;;;;;;8.19;68.81;97630.94;5051800;28;20067;-72
2021/11/25 09:00:25;;;;;;;10.13;4.65;;;;;;;8.29;68.82;97611.19;5059904;28;20060;-68
2021/11/25 09:02:56;;;;;;;8.95;3.95;;;;;;;8.29;68.13;97580.81;5057351;28;20056;-69
2021/11/25 09:05:24;;;;;;;8.07;3.63;;;;;;;8.57;67.75;97612.16;5059485;28;20492;-76
2021/11/25 09:07:50;;;;;;;6.55;4.28;;;;;;;7.45;67.25;97408.50;5064364;28;20072;-68
2021/11/25 09:10:18;;;;;;;11.07;4.80;;;;;;;8.78;66.25;97591.59;5067369;28;20436;-71
2021/11/25 09:12:45;;;;;;;6.85;4.10;;;;;;;7.39;65.91;97368.53;5061634;28;20052;-68
2021/11/25 09:15:20;;;;;;;8.80;3.83;;;;;;;7.73;65.73;97409.44;5061484;28;20056;-72
2021/11/25 09:17:47;;;;;;;13.38;3.67;;;;;;;8.90;66.21;97585.22;5063571;28;20056;-67
2021/11/25 09:20:24;;;;;;;7.40;3.22;;;;;;;8.52;65.10;97518.53;5065788;28;20055;-70
2021/11/25 09:22:51;;;;;;;7.13;3.95;;;;;;;8.64;64.87;97537.84;5050231;28;20057;-70
2021/11/25 09:25:18;;;;;;;7.05;3.60;;;;;;;9.05;64.11;97567.97;5046823;28;20426;-68
2021/11/25 09:27:46;;;;;;;6.72;3.53;;;;;;;8.98;64.82;97559.44;5050170;28;20541;-67
2021/11/25 09:30:13;;;;;;;10.35;4.25;;;;;;;8.59;65.79;97513.22;5051356;28;20384;-73
2021/11/25 09:32:39;;;;;;;6.38;3.75;;;;;;;8.36;66.83;97509.31;5056823;28;20150;-71
2021/11/25 09:35:07;;;;;;;9.10;4.00;;;;;;;8.87;64.02;97574.88;5065854;28;20056;-69
2021/11/25 09:37:34;;;;;;;9.45;4.50;;;;;;;8.89;63.92;97567.06;5060974;28;20067;-74
2021/11/25 09:40:01;;;;;;;7.47;4.20;;;;;;;8.79;62.96;97559.22;5057603;28;20047;-68
2021/11/25 09:42:30;;;;;;;7.38;3.90;;;;;;;8.12;63.28;97470.63;5063856;28;20040;-72
2021/11/25 09:44:57;;;;;;;8.32;3.92;;;;;;;7.96;62.99;97400.72;5051957;28;20148;-75
2021/11/25 09:47:24;;;;;;;9.45;4.30;;;;;;;7.58;63.06;97329.38;5050092;28;20781;-70
2021/11/25 09:49:51;;;;;;;6.57;3.55;;;;;;;8.82;63.35;97540.00;5050690;28;20055;-75
2021/11/25 09:52:18;;;;;;;10.20;4.38;;;;;;;8.69;63.86;97537.59;5056598;28;20060;-75
2021/11/25 09:54:46;;;;;;;8.48;4.63;;;;;;;8.14;64.68;97476.63;5056531;28;20801;-73
2021/11/25 09:57:13;;;;;;;10.30;4.47;;;;;;;8.39;65.34;97530.69;5060718;28;20674;-68
2021/11/25 09:59:39;;;;;;;7.32;3.83;;;;;;;7.78;64.29;97382.81;5064358;28;20060;-70
2021/11/25 10:02:06;;;;;;;10.30;4.30;;;;;;;8.30;65.34;97491.38;5045422;28;20056;-71
2021/11/25 10:04:34;;;;;;;7.57;3.55;;;;;;;8.66;64.58;97530.03;5062669;28;20135;-63
2021/11/25 10:07:06;;;;;;;6.93;3.72;;;;;;;8.05;63.55;97409.69;5057431;28;20138;-70
2021/11/25 10:09:38;;;;;;;5.78;2.90;;;;;;;8.70;61.72;97530.94;5058423;28;20136;-73
2021/11/25 10:12:36;;;;;;;8.35;3.75;;;;;;;8.71;62.37;97521.50;5057746;28;20052;-66
2021/11/25 10:15:33;;;;;;;8.57;4.43;;;;;;;8.87;61.84;97525.16;5066095;28;20066;-67
2021/11/25 10:18:03;;;;;;;10.18;4.30;;;;;;;8.26;62.28;97438.00;5062213;28;20059;-72
2021/11/25 10:20:36;;;;;;;9.95;4.40;;;;;;;8.83;62.95;97513.19;5066279;28;20094;-72
2021/11/25 10:23:07;;;;;;;6.88;4.10;;;;;;;8.78;63.22;97507.91;5066508;28;20058;-72
2021/11/25 10:25:45;;;;;;;7.45;4.03;;;;;;;8.78;62.55;97565.91;5065959;28;20423;-71
2021/11/25 10:28:20;;;;;;;6.05;3.75;;;;;;;8.74;62.46;97498.72;5065696;28;20057;-70
2021/11/25 10:30:54;;;;;;;8.15;3.78;;;;;;;8.76;61.81;97496.38;5065906;28;20048;-71
2021/11/25 10:33:38;;;;;;;8.13;4.65;;;;;;;8.65;61.95;97459.34;5065870;28;20056;-72
2021/11/25 10:41:27;;;;;;;8.00;3.53;;;;;;;7.64;61.30;97304.00;5064931;28;20131;-70
2021/11/25 10:44:19;;;;;;;8.10;2.97;;;;;;;8.59;62.46;97475.38;5064969;28;20128;-72
2021/11/25 10:46:52;;;;;;;7.38;3.15;;;;;;;8.60;62.52;97487.22;5064028;28;20048;-71
2021/11/25 10:49:39;;;;;;;5.88;3.25;;;;;;;7.89;62.72;97397.75;5063557;28;20056;-71
2021/11/25 10:52:13;;;;;;;49.80;19.33;;;;;;;8.56;62.79;97472.50;5065409;28;20515;-73
2021/11/25 10:54:53;;;;;;;10.02;4.80;;;;;;;8.73;62.17;97472.22;5065791;28;20048;-72
2021/11/25 10:57:22;;;;;;;7.28;3.85;;;;;;;8.80;62.10;97464.19;5065650;28;20052;-64
2021/11/25 10:59:52;;;;;;;6.70;3.08;;;;;;;8.51;62.21;97406.47;5059566;28;20052;-70
2021/11/25 11:02:30;;;;;;;7.57;4.78;;;;;;;8.41;61.79;97393.16;5048464;28;20502;-66
2021/11/25 11:05:03;;;;;;;4.50;2.97;;;;;;;8.37;62.19;97375.66;5065227;28;20492;-69
2021/11/25 11:07:38;;;;;;;4.13;2.85;;;;;;;8.95;61.55;97449.63;5064942;28;20056;-69
2021/11/25 11:10:25;;;;;;;5.18;3.28;;;;;;;8.99;60.90;97447.78;5062422;28;20431;-67
2021/11/25 11:13:20;;;;;;;9.05;3.60;;;;;;;8.98;61.58;97444.22;5057342;28;20063;-70
2021/11/25 11:21:34;;;;;;;8.13;3.70;;;;;;;8.84;60.92;97443.78;5045169;28;20048;-64
2021/11/25 11:24:08;;;;;;;9.40;4.13;;;;;;;8.78;61.79;97489.38;5058987;28;20051;-66
2021/11/25 11:26:40;;;;;;;10.02;4.15;;;;;;;8.61;61.93;97428.09;5044354;28;20056;-66
2021/11/25 11:29:09;;;;;;;7.57;3.63;;;;;;;6.22;61.62;97045.56;5051852;28;20131;-67
2021/11/25 11:31:38;;;;;;;6.38;3.40;;;;;;;8.64;61.92;97441.19;5056262;28;20521;-63
2021/11/25 11:34:07;;;;;;;7.43;3.95;;;;;;;8.35;62.11;97394.53;5049458;28;20546;-72
2021/11/25 11:36:39;;;;;;;10.80;4.40;;;;;;;8.22;61.66;97333.00;5057438;28;20057;-73
2021/11/25 11:39:09;;;;;;;13.02;5.25;;;;;;;8.63;61.70;97414.75;5053601;28;20048;-66
2021/11/25 11:41:38;;;;;;;8.82;4.85;;;;;;;8.30;61.80;97351.41;5051825;28;20522;-65
2021/11/25 11:44:05;;;;;;;10.20;3.78;;;;;;;8.45;61.46;97391.28;5059856;28;20040;-71
2021/11/25 11:46:35;;;;;;;4.70;2.90;;;;;;;8.58;62.31;97407.47;5051968;28;20053;-70
2021/11/25 11:49:03;;;;;;;6.72;3.35;;;;;;;8.60;62.34;97407.16;5061700;28;20048;-69
2021/11/25 11:51:32;;;;;;;18.08;6.88;;;;;;;8.25;61.94;97339.81;5053996;28;20056;-68
2021/11/25 11:54:01;;;;;;;8.70;3.75;;;;;;;8.14;62.08;97309.09;5054073;28;20049;-71
2021/11/25 11:56:42;;;;;;;5.70;3.35;;;;;;;8.75;61.69;97404.47;5052123;28;20102;-66